sensor_id;sensor_type;location;lat;lon;timestamp;pressure;altitude;pressure_sealevel;temperature;humidity
80712;BME280;70078;51.596;5.678;2023-09-18T00:01:56;100521.81;;;20.37;81.96
80712;BME280;70078;51.596;5.678;2023-09-18T00:04:21;100479.03;;;20.28;81.88
80712;BME280;70078;51.596;5.678;2023-09-18T00:06:46;100433.72;;;20.00;81.99
80712;BME280;70078;51.596;5.678;2023-09-18T00:09:12;100421.34;;;20.04;82.10
80712;BME280;70078;51.596;5.678;2023-09-18T00:11:39;100409.25;;;19.83;82.03
80712;BME280;70078;51.596;5.678;2023-09-18T00:14:05;100492.69;;;20.44;81.81
80712;BME280;70078;51.596;5.678;2023-09-18T00:16:30;100443.50;;;20.12;81.69
80712;BME280;70078;51.596;5.678;2023-09-18T00:18:56;100438.75;;;20.19;81.31
80712;BME280;70078;51.596;5.678;2023-09-18T00:21:22;100412.41;;;20.03;81.65
80712;BME280;70078;51.596;5.678;2023-09-18T00:23:50;100458.28;;;20.33;81.85
80712;BME280;70078;51.596;5.678;2023-09-18T00:26:16;100425.59;;;20.11;81.38
80712;BME280;70078;51.596;5.678;2023-09-18T00:28:41;100416.41;;;20.01;81.88
80712;BME280;70078;51.596;5.678;2023-09-18T00:31:06;100400.75;;;20.03;81.79
80712;BME280;70078;51.596;5.678;2023-09-18T00:33:32;100425.66;;;20.16;81.89
80712;BME280;70078;51.596;5.678;2023-09-18T00:35:57;100427.09;;;20.19;81.72
80712;BME280;70078;51.596;5.678;2023-09-18T00:38:23;100437.19;;;20.23;81.90
80712;BME280;70078;51.596;5.678;2023-09-18T00:40:48;100431.31;;;20.27;81.88
80712;BME280;70078;51.596;5.678;2023-09-18T00:43:14;100405.78;;;20.11;82.15
80712;BME280;70078;51.596;5.678;2023-09-18T00:45:45;100443.19;;;20.37;81.63
80712;BME280;70078;51.596;5.678;2023-09-18T00:48:11;100440.47;;;20.37;81.66
80712;BME280;70078;51.596;5.678;2023-09-18T00:50:37;100376.25;;;19.98;82.20
80712;BME280;70078;51.596;5.678;2023-09-18T00:53:03;100374.09;;;20.00;82.01
80712;BME280;70078;51.596;5.678;2023-09-18T00:55:30;100375.75;;;20.01;81.94
80712;BME280;70078;51.596;5.678;2023-09-18T00:57:57;100397.75;;;20.16;82.10
80712;BME280;70078;51.596;5.678;2023-09-18T01:00:23;100366.13;;;19.93;82.48
80712;BME280;70078;51.596;5.678;2023-09-18T01:02:49;100381.78;;;20.03;82.57
80712;BME280;70078;51.596;5.678;2023-09-18T01:05:14;100334.34;;;19.88;82.22
80712;BME280;70078;51.596;5.678;2023-09-18T01:07:42;100412.41;;;20.32;82.39
80712;BME280;70078;51.596;5.678;2023-09-18T01:10:09;100386.88;;;20.28;82.34
80712;BME280;70078;51.596;5.678;2023-09-18T01:13:04;100377.44;;;20.30;82.43
80712;BME280;70078;51.596;5.678;2023-09-18T01:15:43;100343.28;;;20.17;82.28
80712;BME280;70078;51.596;5.678;2023-09-18T01:18:11;100330.38;;;20.08;82.61
80712;BME280;70078;51.596;5.678;2023-09-18T01:20:36;100356.22;;;20.27;82.36
80712;BME280;70078;51.596;5.678;2023-09-18T01:23:02;100323.31;;;20.07;82.44
80712;BME280;70078;51.596;5.678;2023-09-18T01:25:27;100357.38;;;20.31;82.59
80712;BME280;70078;51.596;5.678;2023-09-18T01:27:52;100342.69;;;20.27;82.26
80712;BME280;70078;51.596;5.678;2023-09-18T01:30:18;100364.66;;;20.42;82.19
80712;BME280;70078;51.596;5.678;2023-09-18T01:32:44;100312.56;;;20.12;82.31
80712;BME280;70078;51.596;5.678;2023-09-18T01:35:15;100288.72;;;19.97;82.48
80712;BME280;70078;51.596;5.678;2023-09-18T01:37:44;100305.34;;;20.17;82.08
80712;BME280;70078;51.596;5.678;2023-09-18T01:40:10;100275.16;;;19.97;82.05
80712;BME280;70078;51.596;5.678;2023-09-18T01:42:36;100277.50;;;20.05;82.08
80712;BME280;70078;51.596;5.678;2023-09-18T01:45:02;100291.38;;;20.09;82.05
80712;BME280;70078;51.596;5.678;2023-09-18T01:47:33;100355.44;;;20.43;82.21
80712;BME280;70078;51.596;5.678;2023-09-18T01:50:03;100351.19;;;20.47;81.98
80712;BME280;70078;51.596;5.678;2023-09-18T01:52:30;100306.75;;;20.20;81.86
80712;BME280;70078;51.596;5.678;2023-09-18T01:54:56;100297.97;;;20.13;82.26
80712;BME280;70078;51.596;5.678;2023-09-18T01:57:21;100318.59;;;20.31;82.28
80712;BME280;70078;51.596;5.678;2023-09-18T01:59:47;100296.88;;;20.14;82.34
80712;BME280;70078;51.596;5.678;2023-09-18T02:02:12;100339.88;;;20.50;82.13
80712;BME280;70078;51.596;5.678;2023-09-18T02:04:37;100289.81;;;20.13;81.71
80712;BME280;70078;51.596;5.678;2023-09-18T02:07:03;100350.72;;;20.50;81.70
80712;BME280;70078;51.596;5.678;2023-09-18T02:09:29;100302.28;;;20.26;81.52
80712;BME280;70078;51.596;5.678;2023-09-18T02:11:54;100316.47;;;20.33;81.85
80712;BME280;70078;51.596;5.678;2023-09-18T02:14:19;100289.19;;;20.22;81.99
80712;BME280;70078;51.596;5.678;2023-09-18T02:16:44;100299.63;;;20.31;81.38
80712;BME280;70078;51.596;5.678;2023-09-18T02:19:12;100280.81;;;20.24;81.81
80712;BME280;70078;51.596;5.678;2023-09-18T02:21:42;100319.25;;;20.49;81.61
80712;BME280;70078;51.596;5.678;2023-09-18T02:24:08;100310.31;;;20.49;81.41
80712;BME280;70078;51.596;5.678;2023-09-18T02:26:34;100280.75;;;20.36;81.48
80712;BME280;70078;51.596;5.678;2023-09-18T02:29:03;100240.22;;;20.12;81.70
80712;BME280;70078;51.596;5.678;2023-09-18T02:31:29;100249.34;;;20.23;81.49
80712;BME280;70078;51.596;5.678;2023-09-18T02:33:54;100255.44;;;20.30;81.11
80712;BME280;70078;51.596;5.678;2023-09-18T02:36:19;100296.66;;;20.61;80.71
80712;BME280;70078;51.596;5.678;2023-09-18T02:38:45;100239.41;;;20.29;80.77
80712;BME280;70078;51.596;5.678;2023-09-18T02:41:10;100250.78;;;20.42;80.56
80712;BME280;70078;51.596;5.678;2023-09-18T02:43:36;100266.25;;;20.59;80.63
80712;BME280;70078;51.596;5.678;2023-09-18T02:46:03;100190.78;;;20.22;80.43
80712;BME280;70078;51.596;5.678;2023-09-18T02:48:29;100242.34;;;20.56;80.54
80712;BME280;70078;51.596;5.678;2023-09-18T02:50:54;100190.94;;;20.32;80.11
80712;BME280;70078;51.596;5.678;2023-09-18T02:53:21;100246.19;;;20.76;79.66
80712;BME280;70078;51.596;5.678;2023-09-18T02:55:48;100235.19;;;20.66;79.92
80712;BME280;70078;51.596;5.678;2023-09-18T02:58:14;100186.38;;;20.49;79.83
80712;BME280;70078;51.596;5.678;2023-09-18T03:00:44;100201.66;;;20.56;79.71
80712;BME280;70078;51.596;5.678;2023-09-18T03:03:10;100166.22;;;20.29;79.96
80712;BME280;70078;51.596;5.678;2023-09-18T03:05:35;100207.00;;;20.34;80.64
80712;BME280;70078;51.596;5.678;2023-09-18T03:08:01;100217.75;;;20.45;80.43
80712;BME280;70078;51.596;5.678;2023-09-18T03:10:27;100197.38;;;20.26;80.57
80712;BME280;70078;51.596;5.678;2023-09-18T03:12:52;100211.25;;;20.30;80.63
80712;BME280;70078;51.596;5.678;2023-09-18T03:15:17;100236.34;;;20.54;80.66
80712;BME280;70078;51.596;5.678;2023-09-18T03:17:42;100186.09;;;20.17;80.62
80712;BME280;70078;51.596;5.678;2023-09-18T03:20:08;100177.47;;;20.04;80.48
80712;BME280;70078;51.596;5.678;2023-09-18T03:22:34;100177.88;;;19.95;80.76
80712;BME280;70078;51.596;5.678;2023-09-18T03:24:59;100228.41;;;20.35;80.81
80712;BME280;70078;51.596;5.678;2023-09-18T03:27:25;100176.56;;;19.98;80.85
80712;BME280;70078;51.596;5.678;2023-09-18T03:29:54;100164.34;;;19.95;80.89
80712;BME280;70078;51.596;5.678;2023-09-18T03:32:20;100226.38;;;20.26;80.53
80712;BME280;70078;51.596;5.678;2023-09-18T03:34:53;100238.50;;;20.40;80.90
80712;BME280;70078;51.596;5.678;2023-09-18T03:37:19;100196.78;;;20.24;80.89
80712;BME280;70078;51.596;5.678;2023-09-18T03:39:44;100220.13;;;20.42;80.42
80712;BME280;70078;51.596;5.678;2023-09-18T03:42:09;100195.06;;;20.18;80.75
80712;BME280;70078;51.596;5.678;2023-09-18T03:44:35;100188.78;;;20.17;80.50
80712;BME280;70078;51.596;5.678;2023-09-18T03:47:01;100194.31;;;20.06;80.93
80712;BME280;70078;51.596;5.678;2023-09-18T03:49:27;100168.44;;;20.15;80.04
80712;BME280;70078;51.596;5.678;2023-09-18T03:51:53;100174.38;;;20.29;80.29
80712;BME280;70078;51.596;5.678;2023-09-18T03:54:18;100186.59;;;20.31;80.44
80712;BME280;70078;51.596;5.678;2023-09-18T03:56:43;100213.34;;;20.56;80.11
80712;BME280;70078;51.596;5.678;2023-09-18T03:59:09;100241.34;;;20.62;80.35
80712;BME280;70078;51.596;5.678;2023-09-18T04:01:34;100255.31;;;20.54;80.93
80712;BME280;70078;51.596;5.678;2023-09-18T04:03:59;100180.34;;;20.14;80.90
80712;BME280;70078;51.596;5.678;2023-09-18T04:06:32;100182.50;;;20.29;81.13
80712;BME280;70078;51.596;5.678;2023-09-18T04:09:00;100177.47;;;20.37;80.49
80712;BME280;70078;51.596;5.678;2023-09-18T04:11:25;100166.16;;;20.40;80.86
80712;BME280;70078;51.596;5.678;2023-09-18T04:13:51;100189.75;;;20.57;81.15
80712;BME280;70078;51.596;5.678;2023-09-18T04:16:16;100126.72;;;20.16;81.54
80712;BME280;70078;51.596;5.678;2023-09-18T04:18:42;100129.69;;;20.14;81.00
80712;BME280;70078;51.596;5.678;2023-09-18T04:21:08;100205.44;;;20.55;81.24
80712;BME280;70078;51.596;5.678;2023-09-18T04:23:34;100176.50;;;20.27;81.84
80712;BME280;70078;51.596;5.678;2023-09-18T04:26:01;100217.06;;;20.38;82.68
80712;BME280;70078;51.596;5.678;2023-09-18T04:28:27;100256.53;;;20.63;83.20
80712;BME280;70078;51.596;5.678;2023-09-18T04:30:52;100146.34;;;19.89;83.08
80712;BME280;70078;51.596;5.678;2023-09-18T04:33:18;100212.41;;;20.34;83.64
80712;BME280;70078;51.596;5.678;2023-09-18T04:35:44;100185.28;;;20.17;84.30
80712;BME280;70078;51.596;5.678;2023-09-18T04:38:09;100161.22;;;20.04;84.71
80712;BME280;70078;51.596;5.678;2023-09-18T04:40:40;100185.94;;;20.24;84.21
80712;BME280;70078;51.596;5.678;2023-09-18T04:43:05;100141.66;;;20.02;84.83
80712;BME280;70078;51.596;5.678;2023-09-18T04:45:31;100138.13;;;20.01;85.34
80712;BME280;70078;51.596;5.678;2023-09-18T04:47:57;100153.34;;;20.19;85.47
80712;BME280;70078;51.596;5.678;2023-09-18T04:50:23;100123.44;;;19.97;85.48
80712;BME280;70078;51.596;5.678;2023-09-18T04:52:48;100159.91;;;20.23;85.46
80712;BME280;70078;51.596;5.678;2023-09-18T04:55:16;100150.13;;;20.22;85.68
80712;BME280;70078;51.596;5.678;2023-09-18T04:57:41;100110.72;;;19.98;85.51
80712;BME280;70078;51.596;5.678;2023-09-18T05:00:07;100083.69;;;19.86;85.97
80712;BME280;70078;51.596;5.678;2023-09-18T05:02:38;100083.38;;;19.82;85.38
80712;BME280;70078;51.596;5.678;2023-09-18T05:05:04;100077.81;;;19.89;85.47
80712;BME280;70078;51.596;5.678;2023-09-18T05:07:29;100138.56;;;20.27;85.32
80712;BME280;70078;51.596;5.678;2023-09-18T05:09:55;100097.06;;;20.09;85.19
80712;BME280;70078;51.596;5.678;2023-09-18T05:12:20;100075.31;;;19.87;85.50
80712;BME280;70078;51.596;5.678;2023-09-18T05:14:47;100085.75;;;19.95;85.46
80712;BME280;70078;51.596;5.678;2023-09-18T05:17:15;100098.66;;;20.05;84.96
80712;BME280;70078;51.596;5.678;2023-09-18T05:19:40;100110.56;;;20.04;85.02
80712;BME280;70078;51.596;5.678;2023-09-18T05:22:07;100145.94;;;20.31;84.78
80712;BME280;70078;51.596;5.678;2023-09-18T05:24:33;100091.41;;;19.94;85.12
80712;BME280;70078;51.596;5.678;2023-09-18T05:26:58;100095.53;;;19.97;85.07
80712;BME280;70078;51.596;5.678;2023-09-18T05:29:24;100114.34;;;20.03;84.67
80712;BME280;70078;51.596;5.678;2023-09-18T05:31:49;100105.88;;;20.00;84.51
80712;BME280;70078;51.596;5.678;2023-09-18T05:34:14;100104.72;;;19.95;83.56
80712;BME280;70078;51.596;5.678;2023-09-18T05:36:40;100168.59;;;20.25;82.64
80712;BME280;70078;51.596;5.678;2023-09-18T05:39:06;100093.38;;;19.65;82.34
80712;BME280;70078;51.596;5.678;2023-09-18T05:41:35;100127.19;;;19.79;82.21
80712;BME280;70078;51.596;5.678;2023-09-18T05:44:01;100142.41;;;19.80;81.80
80712;BME280;70078;51.596;5.678;2023-09-18T05:46:29;100182.03;;;19.86;82.02
80712;BME280;70078;51.596;5.678;2023-09-18T05:48:54;100159.94;;;19.78;82.17
80712;BME280;70078;51.596;5.678;2023-09-18T05:51:25;100141.06;;;19.83;81.39
80712;BME280;70078;51.596;5.678;2023-09-18T05:53:50;100160.75;;;19.78;81.86
80712;BME280;70078;51.596;5.678;2023-09-18T05:56:15;100180.06;;;19.82;81.91
80712;BME280;70078;51.596;5.678;2023-09-18T05:58:42;100165.50;;;19.71;81.41
80712;BME280;70078;51.596;5.678;2023-09-18T06:01:07;100171.34;;;19.80;81.55
80712;BME280;70078;51.596;5.678;2023-09-18T06:03:33;100172.56;;;19.72;81.59
80712;BME280;70078;51.596;5.678;2023-09-18T06:06:01;100119.56;;;19.48;81.25
80712;BME280;70078;51.596;5.678;2023-09-18T06:08:28;100144.59;;;19.55;81.77
80712;BME280;70078;51.596;5.678;2023-09-18T06:10:57;100164.38;;;19.67;81.35
80712;BME280;70078;51.596;5.678;2023-09-18T06:13:26;100219.19;;;20.03;81.15
80712;BME280;70078;51.596;5.678;2023-09-18T06:15:53;100197.16;;;19.82;80.93
80712;BME280;70078;51.596;5.678;2023-09-18T06:18:20;100197.97;;;19.83;80.72
80712;BME280;70078;51.596;5.678;2023-09-18T06:20:49;100183.66;;;19.71;80.45
80712;BME280;70078;51.596;5.678;2023-09-18T06:23:14;100174.75;;;19.58;81.08
80712;BME280;70078;51.596;5.678;2023-09-18T06:25:40;100184.47;;;19.71;80.80
80712;BME280;70078;51.596;5.678;2023-09-18T06:28:06;100237.56;;;20.01;80.86
80712;BME280;70078;51.596;5.678;2023-09-18T06:30:32;100223.47;;;19.87;80.95
80712;BME280;70078;51.596;5.678;2023-09-18T06:32:59;100160.97;;;19.48;80.75
80712;BME280;70078;51.596;5.678;2023-09-18T06:35:24;100234.19;;;19.93;80.87
80712;BME280;70078;51.596;5.678;2023-09-18T06:37:50;100221.59;;;19.87;80.13
80712;BME280;70078;51.596;5.678;2023-09-18T06:40:15;100231.47;;;19.93;80.68
80712;BME280;70078;51.596;5.678;2023-09-18T06:42:41;100222.34;;;19.83;80.05
80712;BME280;70078;51.596;5.678;2023-09-18T06:45:06;100198.34;;;19.75;80.10
80712;BME280;70078;51.596;5.678;2023-09-18T06:47:33;100227.25;;;19.86;80.13
80712;BME280;70078;51.596;5.678;2023-09-18T06:49:58;100233.09;;;19.94;79.90
80712;BME280;70078;51.596;5.678;2023-09-18T06:52:25;100212.53;;;19.65;80.36
80712;BME280;70078;51.596;5.678;2023-09-18T06:54:52;100204.41;;;19.53;80.50
80712;BME280;70078;51.596;5.678;2023-09-18T06:57:17;100218.16;;;19.63;80.82
80712;BME280;70078;51.596;5.678;2023-09-18T06:59:42;100233.06;;;19.78;80.04
80712;BME280;70078;51.596;5.678;2023-09-18T07:02:09;100211.78;;;19.70;79.93
80712;BME280;70078;51.596;5.678;2023-09-18T07:04:35;100255.38;;;19.97;79.92
80712;BME280;70078;51.596;5.678;2023-09-18T07:07:00;100218.03;;;19.70;79.56
80712;BME280;70078;51.596;5.678;2023-09-18T07:09:25;100253.97;;;19.94;80.68
80712;BME280;70078;51.596;5.678;2023-09-18T07:11:51;100243.13;;;19.94;79.99
80712;BME280;70078;51.596;5.678;2023-09-18T07:14:17;100224.41;;;19.92;79.31
80712;BME280;70078;51.596;5.678;2023-09-18T07:16:43;100194.91;;;19.79;79.16
80712;BME280;70078;51.596;5.678;2023-09-18T07:19:08;100212.63;;;19.70;80.20
80712;BME280;70078;51.596;5.678;2023-09-18T07:21:36;100198.00;;;19.71;80.10
80712;BME280;70078;51.596;5.678;2023-09-18T07:24:03;100271.09;;;20.11;79.66
80712;BME280;70078;51.596;5.678;2023-09-18T07:26:28;100197.28;;;19.76;79.27
80712;BME280;70078;51.596;5.678;2023-09-18T07:28:54;100219.50;;;19.89;79.26
80712;BME280;70078;51.596;5.678;2023-09-18T07:31:19;100239.91;;;19.80;79.60
80712;BME280;70078;51.596;5.678;2023-09-18T07:33:44;100290.41;;;20.15;79.18
80712;BME280;70078;51.596;5.678;2023-09-18T07:36:09;100283.00;;;20.10;79.55
80712;BME280;70078;51.596;5.678;2023-09-18T07:38:35;100230.03;;;19.74;78.65
80712;BME280;70078;51.596;5.678;2023-09-18T07:41:01;100315.97;;;20.19;78.99
80712;BME280;70078;51.596;5.678;2023-09-18T07:43:27;100249.75;;;19.86;78.87
80712;BME280;70078;51.596;5.678;2023-09-18T07:45:53;100261.06;;;19.95;78.87
80712;BME280;70078;51.596;5.678;2023-09-18T07:48:19;100248.22;;;19.90;79.54
80712;BME280;70078;51.596;5.678;2023-09-18T07:50:46;100254.56;;;19.96;79.47
80712;BME280;70078;51.596;5.678;2023-09-18T07:53:14;100227.41;;;19.79;79.01
80712;BME280;70078;51.596;5.678;2023-09-18T07:55:40;100206.06;;;19.66;78.54
80712;BME280;70078;51.596;5.678;2023-09-18T07:58:05;100217.19;;;19.81;78.57
80712;BME280;70078;51.596;5.678;2023-09-18T08:00:34;100259.25;;;20.01;78.84
80712;BME280;70078;51.596;5.678;2023-09-18T08:02:59;100246.03;;;20.04;78.44
80712;BME280;70078;51.596;5.678;2023-09-18T08:05:29;100216.78;;;19.89;78.50
80712;BME280;70078;51.596;5.678;2023-09-18T08:07:55;100258.94;;;20.14;77.91
80712;BME280;70078;51.596;5.678;2023-09-18T08:10:22;100202.72;;;19.76;77.56
80712;BME280;70078;51.596;5.678;2023-09-18T08:12:47;100272.09;;;20.22;77.48
80712;BME280;70078;51.596;5.678;2023-09-18T08:15:13;100223.94;;;19.95;77.61
80712;BME280;70078;51.596;5.678;2023-09-18T08:17:39;100230.50;;;20.00;77.77
80712;BME280;70078;51.596;5.678;2023-09-18T08:20:06;100224.91;;;19.89;77.74
80712;BME280;70078;51.596;5.678;2023-09-18T08:22:43;100233.78;;;20.02;77.88
80712;BME280;70078;51.596;5.678;2023-09-18T08:25:10;100293.00;;;20.38;76.94
80712;BME280;70078;51.596;5.678;2023-09-18T08:27:37;100244.81;;;20.12;78.24
80712;BME280;70078;51.596;5.678;2023-09-18T08:30:07;100278.50;;;20.44;77.06
80712;BME280;70078;51.596;5.678;2023-09-18T08:36:00;100267.91;;;20.60;75.17
80712;BME280;70078;51.596;5.678;2023-09-18T08:38:25;100239.09;;;20.42;75.12
80712;BME280;70078;51.596;5.678;2023-09-18T08:40:54;100316.66;;;20.88;74.43
80712;BME280;70078;51.596;5.678;2023-09-18T08:43:19;100290.75;;;20.64;74.80
80712;BME280;70078;51.596;5.678;2023-09-18T08:45:53;100324.28;;;20.91;74.71
80712;BME280;70078;51.596;5.678;2023-09-18T08:48:20;100319.44;;;20.93;74.69
80712;BME280;70078;51.596;5.678;2023-09-18T08:50:47;100296.84;;;20.71;73.67
80712;BME280;70078;51.596;5.678;2023-09-18T08:53:12;100285.25;;;20.59;74.09
80712;BME280;70078;51.596;5.678;2023-09-18T08:55:38;100284.50;;;20.63;74.35
80712;BME280;70078;51.596;5.678;2023-09-18T08:58:03;100306.69;;;20.77;74.25
80712;BME280;70078;51.596;5.678;2023-09-18T09:00:29;100263.94;;;20.67;73.59
80712;BME280;70078;51.596;5.678;2023-09-18T09:02:54;100322.16;;;20.93;74.20
80712;BME280;70078;51.596;5.678;2023-09-18T09:05:23;100322.47;;;21.14;73.41
80712;BME280;70078;51.596;5.678;2023-09-18T09:07:49;100307.66;;;21.04;72.86
80712;BME280;70078;51.596;5.678;2023-09-18T09:10:15;100282.81;;;21.13;72.56
80712;BME280;70078;51.596;5.678;2023-09-18T09:12:56;100337.44;;;21.72;72.14
80712;BME280;70078;51.596;5.678;2023-09-18T09:15:27;100295.84;;;21.49;71.94
80712;BME280;70078;51.596;5.678;2023-09-18T09:18:05;100318.44;;;21.99;69.95
80712;BME280;70078;51.596;5.678;2023-09-18T09:20:31;100257.81;;;21.98;69.87
80712;BME280;70078;51.596;5.678;2023-09-18T09:23:15;100281.75;;;22.50;69.14
80712;BME280;70078;51.596;5.678;2023-09-18T09:25:40;100301.81;;;23.08;67.35
80712;BME280;70078;51.596;5.678;2023-09-18T09:28:07;100299.56;;;23.42;65.89
80712;BME280;70078;51.596;5.678;2023-09-18T09:30:33;100281.09;;;23.54;64.90
80712;BME280;70078;51.596;5.678;2023-09-18T09:32:59;100324.69;;;24.22;63.69
80712;BME280;70078;51.596;5.678;2023-09-18T09:35:30;100278.31;;;24.22;63.31
80712;BME280;70078;51.596;5.678;2023-09-18T09:37:58;100300.22;;;24.43;61.60
80712;BME280;70078;51.596;5.678;2023-09-18T09:40:24;100303.50;;;24.50;62.52
80712;BME280;70078;51.596;5.678;2023-09-18T09:42:55;100329.69;;;24.35;62.32
80712;BME280;70078;51.596;5.678;2023-09-18T09:45:29;100363.00;;;24.58;61.51
80712;BME280;70078;51.596;5.678;2023-09-18T09:47:56;100312.03;;;23.86;61.89
80712;BME280;70078;51.596;5.678;2023-09-18T09:50:21;100350.81;;;24.03;62.61
80712;BME280;70078;51.596;5.678;2023-09-18T09:52:48;100299.28;;;23.96;62.79
80712;BME280;70078;51.596;5.678;2023-09-18T09:55:29;100312.41;;;24.04;62.10
80712;BME280;70078;51.596;5.678;2023-09-18T09:58:06;100351.81;;;24.70;61.23
80712;BME280;70078;51.596;5.678;2023-09-18T10:00:43;100345.53;;;24.49;60.88
80712;BME280;70078;51.596;5.678;2023-09-18T10:03:10;100349.78;;;24.14;61.52
80712;BME280;70078;51.596;5.678;2023-09-18T10:05:37;100300.28;;;23.80;61.83
80712;BME280;70078;51.596;5.678;2023-09-18T10:08:08;100333.41;;;24.04;62.22
80712;BME280;70078;51.596;5.678;2023-09-18T10:10:39;100325.41;;;23.82;61.64
80712;BME280;70078;51.596;5.678;2023-09-18T10:16:22;100354.41;;;23.56;61.77
80712;BME280;70078;51.596;5.678;2023-09-18T10:21:39;100373.09;;;23.37;63.11
80712;BME280;70078;51.596;5.678;2023-09-18T10:24:33;100395.91;;;23.63;63.38
80712;BME280;70078;51.596;5.678;2023-09-18T10:27:00;100343.91;;;23.28;63.11
80712;BME280;70078;51.596;5.678;2023-09-18T10:29:29;100364.09;;;23.37;62.12
80712;BME280;70078;51.596;5.678;2023-09-18T10:31:55;100395.78;;;23.48;62.25
80712;BME280;70078;51.596;5.678;2023-09-18T10:34:22;100390.75;;;23.30;63.57
80712;BME280;70078;51.596;5.678;2023-09-18T10:36:50;100379.09;;;23.02;63.50
80712;BME280;70078;51.596;5.678;2023-09-18T10:39:15;100310.63;;;22.56;64.09
80712;BME280;70078;51.596;5.678;2023-09-18T10:41:52;100345.16;;;22.83;64.65
80712;BME280;70078;51.596;5.678;2023-09-18T10:44:18;100333.50;;;23.24;64.00
80712;BME280;70078;51.596;5.678;2023-09-18T10:46:51;100294.09;;;23.42;64.02
80712;BME280;70078;51.596;5.678;2023-09-18T10:49:18;100306.03;;;23.78;63.45
80712;BME280;70078;51.596;5.678;2023-09-18T10:51:46;100327.22;;;24.44;62.35
80712;BME280;70078;51.596;5.678;2023-09-18T10:54:15;100323.97;;;24.62;61.53
80712;BME280;70078;51.596;5.678;2023-09-18T10:56:42;100321.25;;;25.18;59.95
80712;BME280;70078;51.596;5.678;2023-09-18T10:59:08;100301.19;;;25.54;58.57
80712;BME280;70078;51.596;5.678;2023-09-18T11:01:35;100307.69;;;25.68;57.87
80712;BME280;70078;51.596;5.678;2023-09-18T11:04:04;100329.97;;;26.11;58.44
80712;BME280;70078;51.596;5.678;2023-09-18T11:09:21;100356.00;;;26.92;55.44
80712;BME280;70078;51.596;5.678;2023-09-18T11:17:35;100343.72;;;26.45;55.47
80712;BME280;70078;51.596;5.678;2023-09-18T11:20:24;100351.44;;;26.77;54.62
80712;BME280;70078;51.596;5.678;2023-09-18T11:23:10;100294.66;;;26.88;55.01
80712;BME280;70078;51.596;5.678;2023-09-18T11:25:40;100367.59;;;27.13;53.45
80712;BME280;70078;51.596;5.678;2023-09-18T11:28:26;100274.53;;;26.34;52.27
80712;BME280;70078;51.596;5.678;2023-09-18T11:30:56;100363.69;;;26.50;53.41
80712;BME280;70078;51.596;5.678;2023-09-18T11:33:51;100371.97;;;26.40;53.83
80712;BME280;70078;51.596;5.678;2023-09-18T11:38:54;100343.50;;;25.77;54.52
80712;BME280;70078;51.596;5.678;2023-09-18T11:41:24;100318.16;;;25.45;54.38
80712;BME280;70078;51.596;5.678;2023-09-18T11:43:51;100331.91;;;25.25;55.22
80712;BME280;70078;51.596;5.678;2023-09-18T11:46:21;100334.88;;;25.34;56.17
80712;BME280;70078;51.596;5.678;2023-09-18T11:48:48;100353.56;;;25.96;55.80
80712;BME280;70078;51.596;5.678;2023-09-18T11:51:23;100330.69;;;26.26;54.97
80712;BME280;70078;51.596;5.678;2023-09-18T11:53:52;100322.44;;;26.76;52.81
80712;BME280;70078;51.596;5.678;2023-09-18T11:56:19;100303.16;;;26.86;52.12
80712;BME280;70078;51.596;5.678;2023-09-18T11:58:49;100319.69;;;27.34;49.88
80712;BME280;70078;51.596;5.678;2023-09-18T12:01:15;100354.66;;;27.47;49.52
80712;BME280;70078;51.596;5.678;2023-09-18T12:03:41;100319.88;;;27.43;49.43
80712;BME280;70078;51.596;5.678;2023-09-18T12:06:10;100275.03;;;27.33;49.76
80712;BME280;70078;51.596;5.678;2023-09-18T12:08:39;100299.03;;;27.65;48.05
80712;BME280;70078;51.596;5.678;2023-09-18T12:11:06;100353.13;;;27.89;48.01
80712;BME280;70078;51.596;5.678;2023-09-18T12:13:32;100364.78;;;28.18;45.45
80712;BME280;70078;51.596;5.678;2023-09-18T12:15:59;100273.84;;;28.06;46.40
80712;BME280;70078;51.596;5.678;2023-09-18T12:18:25;100248.97;;;27.79;45.58
80712;BME280;70078;51.596;5.678;2023-09-18T12:20:53;100297.88;;;28.33;44.86
80712;BME280;70078;51.596;5.678;2023-09-18T12:23:21;100339.50;;;28.59;43.73
80712;BME280;70078;51.596;5.678;2023-09-18T12:25:48;100344.34;;;28.30;44.64
80712;BME280;70078;51.596;5.678;2023-09-18T12:28:14;100296.91;;;28.05;44.26
80712;BME280;70078;51.596;5.678;2023-09-18T12:30:43;100324.31;;;27.86;43.38
80712;BME280;70078;51.596;5.678;2023-09-18T12:33:12;100304.94;;;28.39;43.11
80712;BME280;70078;51.596;5.678;2023-09-18T12:35:40;100283.41;;;28.09;43.49
80712;BME280;70078;51.596;5.678;2023-09-18T12:38:18;100345.34;;;28.15;44.40
80712;BME280;70078;51.596;5.678;2023-09-18T12:40:53;100310.78;;;27.47;45.31
80712;BME280;70078;51.596;5.678;2023-09-18T12:43:20;100298.56;;;27.10;46.73
80712;BME280;70078;51.596;5.678;2023-09-18T12:45:48;100331.56;;;27.53;45.95
80712;BME280;70078;51.596;5.678;2023-09-18T12:48:14;100328.06;;;27.72;45.73
80712;BME280;70078;51.596;5.678;2023-09-18T12:50:41;100332.09;;;27.79;47.20
80712;BME280;70078;51.596;5.678;2023-09-18T12:53:11;100289.66;;;27.48;46.78
80712;BME280;70078;51.596;5.678;2023-09-18T12:55:37;100322.84;;;27.94;46.48
80712;BME280;70078;51.596;5.678;2023-09-18T12:58:04;100284.19;;;27.48;45.58
80712;BME280;70078;51.596;5.678;2023-09-18T13:00:35;100330.22;;;27.99;48.25
80712;BME280;70078;51.596;5.678;2023-09-18T13:03:02;100290.31;;;28.06;46.33
80712;BME280;70078;51.596;5.678;2023-09-18T13:05:30;100263.81;;;27.78;46.22
80712;BME280;70078;51.596;5.678;2023-09-18T13:08:03;100285.97;;;27.57;46.41
80712;BME280;70078;51.596;5.678;2023-09-18T13:10:29;100212.84;;;27.05;46.52
80712;BME280;70078;51.596;5.678;2023-09-18T13:12:55;100294.44;;;27.61;46.30